Volzhskiy, Russia
Current Conditions -  °F | °C
As of 10:00 PM on Saturday 25 Oct 2014 (Local Time) from URWW Reporting Station
Clear Clear  
Wind Chill:   Ceiling: Unl
Heat Index: 14°   Visibility: 6mi
Dew Point:   Wind: 7mph
Humidity: 79%   Direction: 330°NNW
Pressure: 30.56"   Gusts: NA
Location:  48.79°N, 44.77°E
Report Text: URWW 251900Z 33003MPS CAVOK M10/M13 Q1035 NOSIG RMK SC070
Loading
Personal Weather Stations






























Interactive Weather Map
Tropical Storm Tracking
New forecast layout! Learn more

10-Day Weather Forecast

Advertisements
Track Severe Weather on mobile